sensor_id;sensor_type;location;lat;lon;timestamp;P1;durP1;ratioP1;P2;durP2;ratioP2
57627;SDS011;43451;49.060;10.616;2022-12-29T00:01:25;4.95;;;3.05;;
57627;SDS011;43451;49.060;10.616;2022-12-29T00:03:51;4.63;;;3.28;;
57627;SDS011;43451;49.060;10.616;2022-12-29T00:06:16;4.00;;;2.85;;
57627;SDS011;43451;49.060;10.616;2022-12-29T00:08:42;5.50;;;3.53;;
57627;SDS011;43451;49.060;10.616;2022-12-29T00:11:17;4.32;;;3.05;;
57627;SDS011;43451;49.060;10.616;2022-12-29T00:13:44;3.75;;;2.97;;
57627;SDS011;43451;49.060;10.616;2022-12-29T00:16:29;5.13;;;3.00;;
57627;SDS011;43451;49.060;10.616;2022-12-29T00:18:55;3.63;;;2.90;;
57627;SDS011;43451;49.060;10.616;2022-12-29T00:21:21;3.63;;;3.00;;
57627;SDS011;43451;49.060;10.616;2022-12-29T00:24:08;3.75;;;2.90;;
57627;SDS011;43451;49.060;10.616;2022-12-29T00:29:46;5.55;;;3.17;;
57627;SDS011;43451;49.060;10.616;2022-12-29T00:32:30;4.05;;;2.92;;
57627;SDS011;43451;49.060;10.616;2022-12-29T00:35:17;5.43;;;3.10;;
57627;SDS011;43451;49.060;10.616;2022-12-29T00:37:50;4.55;;;3.10;;
57627;SDS011;43451;49.060;10.616;2022-12-29T00:40:33;4.70;;;2.70;;
57627;SDS011;43451;49.060;10.616;2022-12-29T00:43:17;4.70;;;2.97;;
57627;SDS011;43451;49.060;10.616;2022-12-29T00:46:01;5.70;;;3.10;;
57627;SDS011;43451;49.060;10.616;2022-12-29T00:48:27;4.15;;;3.13;;
57627;SDS011;43451;49.060;10.616;2022-12-29T00:51:11;3.20;;;2.30;;
57627;SDS011;43451;49.060;10.616;2022-12-29T00:53:36;4.05;;;3.05;;
57627;SDS011;43451;49.060;10.616;2022-12-29T00:56:01;3.67;;;2.90;;
57627;SDS011;43451;49.060;10.616;2022-12-29T00:58:28;4.35;;;2.70;;
57627;SDS011;43451;49.060;10.616;2022-12-29T01:01:01;3.88;;;2.75;;
57627;SDS011;43451;49.060;10.616;2022-12-29T01:03:30;3.50;;;2.35;;
57627;SDS011;43451;49.060;10.616;2022-12-29T01:05:55;4.10;;;2.60;;
57627;SDS011;43451;49.060;10.616;2022-12-29T01:08:21;3.83;;;2.35;;
57627;SDS011;43451;49.060;10.616;2022-12-29T01:10:46;4.45;;;2.70;;
57627;SDS011;43451;49.060;10.616;2022-12-29T01:13:23;3.30;;;2.25;;
57627;SDS011;43451;49.060;10.616;2022-12-29T01:15:51;3.83;;;2.50;;
57627;SDS011;43451;49.060;10.616;2022-12-29T01:18:18;9.70;;;3.10;;
57627;SDS011;43451;49.060;10.616;2022-12-29T01:20:43;5.28;;;2.53;;
57627;SDS011;43451;49.060;10.616;2022-12-29T01:23:09;3.83;;;2.67;;
57627;SDS011;43451;49.060;10.616;2022-12-29T01:25:34;5.65;;;2.50;;
57627;SDS011;43451;49.060;10.616;2022-12-29T01:28:00;3.05;;;2.40;;
57627;SDS011;43451;49.060;10.616;2022-12-29T01:30:25;4.13;;;2.22;;
57627;SDS011;43451;49.060;10.616;2022-12-29T01:32:50;3.95;;;2.80;;
57627;SDS011;43451;49.060;10.616;2022-12-29T01:35:16;3.22;;;2.30;;
57627;SDS011;43451;49.060;10.616;2022-12-29T01:37:41;3.72;;;2.50;;
57627;SDS011;43451;49.060;10.616;2022-12-29T01:40:07;4.07;;;2.47;;
57627;SDS011;43451;49.060;10.616;2022-12-29T01:42:33;3.78;;;2.60;;
57627;SDS011;43451;49.060;10.616;2022-12-29T01:45:17;3.78;;;2.45;;
57627;SDS011;43451;49.060;10.616;2022-12-29T01:47:44;4.72;;;2.55;;
57627;SDS011;43451;49.060;10.616;2022-12-29T01:50:35;3.83;;;2.60;;
57627;SDS011;43451;49.060;10.616;2022-12-29T01:53:04;4.25;;;2.55;;
57627;SDS011;43451;49.060;10.616;2022-12-29T01:55:37;3.20;;;2.30;;
57627;SDS011;43451;49.060;10.616;2022-12-29T01:58:07;4.63;;;2.30;;
57627;SDS011;43451;49.060;10.616;2022-12-29T02:00:35;3.55;;;2.30;;
57627;SDS011;43451;49.060;10.616;2022-12-29T02:03:02;4.95;;;2.60;;
57627;SDS011;43451;49.060;10.616;2022-12-29T02:05:32;3.28;;;2.30;;
57627;SDS011;43451;49.060;10.616;2022-12-29T02:08:03;3.63;;;2.38;;
57627;SDS011;43451;49.060;10.616;2022-12-29T02:10:29;3.92;;;2.30;;
57627;SDS011;43451;49.060;10.616;2022-12-29T02:12:57;3.83;;;2.45;;
57627;SDS011;43451;49.060;10.616;2022-12-29T02:15:31;3.78;;;2.20;;
57627;SDS011;43451;49.060;10.616;2022-12-29T02:36:22;3.72;;;1.80;;
57627;SDS011;43451;49.060;10.616;2022-12-29T02:47:10;2.85;;;1.92;;
57627;SDS011;43451;49.060;10.616;2022-12-29T02:52:38;3.75;;;2.33;;
57627;SDS011;43451;49.060;10.616;2022-12-29T02:55:26;3.58;;;2.13;;
57627;SDS011;43451;49.060;10.616;2022-12-29T03:09:09;3.05;;;1.88;;
57627;SDS011;43451;49.060;10.616;2022-12-29T03:11:53;3.72;;;2.00;;
57627;SDS011;43451;49.060;10.616;2022-12-29T03:14:33;5.07;;;2.20;;
57627;SDS011;43451;49.060;10.616;2022-12-29T03:17:27;3.10;;;2.05;;
57627;SDS011;43451;49.060;10.616;2022-12-29T03:20:07;3.03;;;2.20;;
57627;SDS011;43451;49.060;10.616;2022-12-29T03:22:36;4.78;;;1.95;;
57627;SDS011;43451;49.060;10.616;2022-12-29T03:27:50;2.30;;;1.70;;
57627;SDS011;43451;49.060;10.616;2022-12-29T03:30:21;2.95;;;1.92;;
57627;SDS011;43451;49.060;10.616;2022-12-29T03:32:52;2.67;;;1.90;;
57627;SDS011;43451;49.060;10.616;2022-12-29T03:35:21;3.85;;;1.77;;
57627;SDS011;43451;49.060;10.616;2022-12-29T03:37:51;2.97;;;1.90;;
57627;SDS011;43451;49.060;10.616;2022-12-29T03:40:23;3.22;;;1.60;;
57627;SDS011;43451;49.060;10.616;2022-12-29T03:42:51;4.35;;;1.75;;
57627;SDS011;43451;49.060;10.616;2022-12-29T03:45:18;2.57;;;1.83;;
57627;SDS011;43451;49.060;10.616;2022-12-29T03:47:44;2.97;;;1.65;;
57627;SDS011;43451;49.060;10.616;2022-12-29T03:50:11;4.82;;;1.70;;
57627;SDS011;43451;49.060;10.616;2022-12-29T03:52:37;2.28;;;1.80;;
57627;SDS011;43451;49.060;10.616;2022-12-29T03:55:02;2.08;;;1.73;;
57627;SDS011;43451;49.060;10.616;2022-12-29T03:57:28;2.13;;;1.67;;
57627;SDS011;43451;49.060;10.616;2022-12-29T03:59:54;3.22;;;1.75;;
57627;SDS011;43451;49.060;10.616;2022-12-29T04:02:19;2.17;;;1.55;;
57627;SDS011;43451;49.060;10.616;2022-12-29T04:04:44;4.75;;;1.98;;
57627;SDS011;43451;49.060;10.616;2022-12-29T04:07:10;2.78;;;1.90;;
57627;SDS011;43451;49.060;10.616;2022-12-29T04:09:36;2.65;;;1.70;;
57627;SDS011;43451;49.060;10.616;2022-12-29T04:12:01;2.85;;;1.63;;
57627;SDS011;43451;49.060;10.616;2022-12-29T04:14:27;3.13;;;1.90;;
57627;SDS011;43451;49.060;10.616;2022-12-29T04:16:52;1.98;;;1.60;;
57627;SDS011;43451;49.060;10.616;2022-12-29T04:19:18;2.65;;;1.75;;
57627;SDS011;43451;49.060;10.616;2022-12-29T04:21:43;2.78;;;1.70;;
57627;SDS011;43451;49.060;10.616;2022-12-29T04:24:08;2.35;;;1.40;;
57627;SDS011;43451;49.060;10.616;2022-12-29T04:26:34;2.15;;;1.55;;
57627;SDS011;43451;49.060;10.616;2022-12-29T04:28:59;2.83;;;1.85;;
57627;SDS011;43451;49.060;10.616;2022-12-29T04:31:25;4.15;;;1.70;;
57627;SDS011;43451;49.060;10.616;2022-12-29T04:33:50;2.60;;;1.70;;
57627;SDS011;43451;49.060;10.616;2022-12-29T04:36:15;2.60;;;1.55;;
57627;SDS011;43451;49.060;10.616;2022-12-29T04:38:41;4.95;;;1.60;;
57627;SDS011;43451;49.060;10.616;2022-12-29T04:41:06;1.80;;;1.50;;
57627;SDS011;43451;49.060;10.616;2022-12-29T04:43:32;2.22;;;1.67;;
57627;SDS011;43451;49.060;10.616;2022-12-29T04:45:57;2.33;;;1.60;;
57627;SDS011;43451;49.060;10.616;2022-12-29T04:48:23;2.15;;;1.60;;
57627;SDS011;43451;49.060;10.616;2022-12-29T04:50:48;2.80;;;1.40;;
57627;SDS011;43451;49.060;10.616;2022-12-29T04:53:14;3.20;;;1.52;;
57627;SDS011;43451;49.060;10.616;2022-12-29T04:55:40;1.90;;;1.40;;
57627;SDS011;43451;49.060;10.616;2022-12-29T04:58:05;3.33;;;1.52;;
57627;SDS011;43451;49.060;10.616;2022-12-29T05:00:31;6.75;;;2.67;;
57627;SDS011;43451;49.060;10.616;2022-12-29T05:02:57;1.83;;;1.23;;
57627;SDS011;43451;49.060;10.616;2022-12-29T05:05:22;2.40;;;1.50;;
57627;SDS011;43451;49.060;10.616;2022-12-29T05:07:47;3.00;;;1.40;;
57627;SDS011;43451;49.060;10.616;2022-12-29T05:10:13;2.65;;;1.58;;
57627;SDS011;43451;49.060;10.616;2022-12-29T05:12:39;3.25;;;1.50;;
57627;SDS011;43451;49.060;10.616;2022-12-29T05:15:05;2.75;;;1.60;;
57627;SDS011;43451;49.060;10.616;2022-12-29T05:17:32;2.60;;;1.60;;
57627;SDS011;43451;49.060;10.616;2022-12-29T05:19:58;3.35;;;2.00;;
57627;SDS011;43451;49.060;10.616;2022-12-29T05:22:23;2.63;;;1.60;;
57627;SDS011;43451;49.060;10.616;2022-12-29T05:24:49;2.00;;;1.60;;
57627;SDS011;43451;49.060;10.616;2022-12-29T05:27:15;2.35;;;1.58;;
57627;SDS011;43451;49.060;10.616;2022-12-29T05:29:40;3.92;;;1.70;;
57627;SDS011;43451;49.060;10.616;2022-12-29T05:32:06;3.53;;;1.65;;
57627;SDS011;43451;49.060;10.616;2022-12-29T05:34:31;4.57;;;1.70;;
57627;SDS011;43451;49.060;10.616;2022-12-29T05:36:57;3.35;;;1.77;;
57627;SDS011;43451;49.060;10.616;2022-12-29T05:39:22;2.33;;;1.55;;
57627;SDS011;43451;49.060;10.616;2022-12-29T05:41:48;2.45;;;1.73;;
57627;SDS011;43451;49.060;10.616;2022-12-29T05:44:13;4.95;;;1.70;;
57627;SDS011;43451;49.060;10.616;2022-12-29T05:46:39;2.80;;;1.80;;
57627;SDS011;43451;49.060;10.616;2022-12-29T05:49:05;3.08;;;1.73;;
57627;SDS011;43451;49.060;10.616;2022-12-29T05:51:31;3.78;;;1.73;;
57627;SDS011;43451;49.060;10.616;2022-12-29T05:53:56;3.22;;;1.65;;
57627;SDS011;43451;49.060;10.616;2022-12-29T05:56:22;3.20;;;1.65;;
57627;SDS011;43451;49.060;10.616;2022-12-29T05:58:47;3.72;;;1.63;;
57627;SDS011;43451;49.060;10.616;2022-12-29T06:01:13;3.17;;;1.90;;
57627;SDS011;43451;49.060;10.616;2022-12-29T06:03:38;3.33;;;1.83;;
57627;SDS011;43451;49.060;10.616;2022-12-29T06:06:04;3.13;;;1.60;;
57627;SDS011;43451;49.060;10.616;2022-12-29T06:08:30;3.95;;;1.80;;
57627;SDS011;43451;49.060;10.616;2022-12-29T06:10:55;3.60;;;1.60;;
57627;SDS011;43451;49.060;10.616;2022-12-29T06:13:20;2.53;;;1.63;;
57627;SDS011;43451;49.060;10.616;2022-12-29T06:15:47;3.15;;;1.80;;
57627;SDS011;43451;49.060;10.616;2022-12-29T06:18:14;2.65;;;1.63;;
57627;SDS011;43451;49.060;10.616;2022-12-29T06:20:39;3.78;;;1.73;;
57627;SDS011;43451;49.060;10.616;2022-12-29T06:23:05;3.70;;;1.98;;
57627;SDS011;43451;49.060;10.616;2022-12-29T06:25:30;3.75;;;1.90;;
57627;SDS011;43451;49.060;10.616;2022-12-29T06:27:57;2.58;;;1.80;;
57627;SDS011;43451;49.060;10.616;2022-12-29T06:30:23;4.93;;;1.88;;
57627;SDS011;43451;49.060;10.616;2022-12-29T06:32:48;3.70;;;1.88;;
57627;SDS011;43451;49.060;10.616;2022-12-29T06:35:14;4.03;;;2.08;;
57627;SDS011;43451;49.060;10.616;2022-12-29T06:37:40;3.10;;;1.83;;
57627;SDS011;43451;49.060;10.616;2022-12-29T06:40:05;3.25;;;1.67;;
57627;SDS011;43451;49.060;10.616;2022-12-29T06:42:31;2.15;;;1.48;;
57627;SDS011;43451;49.060;10.616;2022-12-29T06:44:57;2.90;;;1.60;;
57627;SDS011;43451;49.060;10.616;2022-12-29T06:47:24;5.82;;;1.70;;
57627;SDS011;43451;49.060;10.616;2022-12-29T06:49:50;3.88;;;1.83;;
57627;SDS011;43451;49.060;10.616;2022-12-29T06:52:15;6.90;;;1.85;;
57627;SDS011;43451;49.060;10.616;2022-12-29T06:54:40;5.15;;;1.80;;
57627;SDS011;43451;49.060;10.616;2022-12-29T06:57:06;2.42;;;1.52;;
57627;SDS011;43451;49.060;10.616;2022-12-29T06:59:32;4.32;;;3.47;;
57627;SDS011;43451;49.060;10.616;2022-12-29T07:01:57;2.50;;;1.70;;
57627;SDS011;43451;49.060;10.616;2022-12-29T07:04:22;2.20;;;1.55;;
57627;SDS011;43451;49.060;10.616;2022-12-29T07:06:48;3.70;;;1.63;;
57627;SDS011;43451;49.060;10.616;2022-12-29T07:09:13;2.92;;;1.50;;
57627;SDS011;43451;49.060;10.616;2022-12-29T07:11:39;2.08;;;1.70;;
57627;SDS011;43451;49.060;10.616;2022-12-29T07:14:04;2.20;;;1.50;;
57627;SDS011;43451;49.060;10.616;2022-12-29T07:16:33;2.63;;;1.80;;
57627;SDS011;43451;49.060;10.616;2022-12-29T07:18:59;3.35;;;1.83;;
57627;SDS011;43451;49.060;10.616;2022-12-29T07:21:24;4.85;;;1.80;;
57627;SDS011;43451;49.060;10.616;2022-12-29T07:23:50;2.70;;;1.92;;
57627;SDS011;43451;49.060;10.616;2022-12-29T07:26:15;4.13;;;1.92;;
57627;SDS011;43451;49.060;10.616;2022-12-29T07:28:43;3.80;;;2.10;;
57627;SDS011;43451;49.060;10.616;2022-12-29T07:31:16;3.45;;;2.17;;
57627;SDS011;43451;49.060;10.616;2022-12-29T07:33:43;2.65;;;1.80;;
57627;SDS011;43451;49.060;10.616;2022-12-29T07:36:10;3.30;;;1.92;;
57627;SDS011;43451;49.060;10.616;2022-12-29T07:38:36;4.28;;;1.83;;
57627;SDS011;43451;49.060;10.616;2022-12-29T07:41:02;3.15;;;1.75;;
57627;SDS011;43451;49.060;10.616;2022-12-29T07:43:27;2.72;;;1.80;;
57627;SDS011;43451;49.060;10.616;2022-12-29T07:45:53;3.75;;;1.90;;
57627;SDS011;43451;49.060;10.616;2022-12-29T07:48:18;3.15;;;1.95;;
57627;SDS011;43451;49.060;10.616;2022-12-29T07:50:44;3.58;;;1.60;;
57627;SDS011;43451;49.060;10.616;2022-12-29T07:53:09;3.08;;;1.65;;
57627;SDS011;43451;49.060;10.616;2022-12-29T07:55:35;3.00;;;1.70;;
57627;SDS011;43451;49.060;10.616;2022-12-29T07:58:00;3.75;;;1.73;;
57627;SDS011;43451;49.060;10.616;2022-12-29T08:00:25;6.45;;;1.63;;
57627;SDS011;43451;49.060;10.616;2022-12-29T08:02:51;2.97;;;1.60;;
57627;SDS011;43451;49.060;10.616;2022-12-29T08:05:16;2.15;;;1.58;;
57627;SDS011;43451;49.060;10.616;2022-12-29T08:07:43;1.77;;;1.55;;
57627;SDS011;43451;49.060;10.616;2022-12-29T08:10:09;2.50;;;1.70;;
57627;SDS011;43451;49.060;10.616;2022-12-29T08:12:37;2.92;;;1.70;;
57627;SDS011;43451;49.060;10.616;2022-12-29T08:15:03;3.20;;;1.70;;
57627;SDS011;43451;49.060;10.616;2022-12-29T08:17:30;3.03;;;1.60;;
57627;SDS011;43451;49.060;10.616;2022-12-29T08:19:55;3.33;;;1.80;;
57627;SDS011;43451;49.060;10.616;2022-12-29T08:22:21;2.67;;;1.67;;
57627;SDS011;43451;49.060;10.616;2022-12-29T08:24:46;3.42;;;1.80;;
57627;SDS011;43451;49.060;10.616;2022-12-29T08:27:12;3.10;;;1.80;;
57627;SDS011;43451;49.060;10.616;2022-12-29T08:29:37;5.00;;;1.98;;
57627;SDS011;43451;49.060;10.616;2022-12-29T08:32:02;3.40;;;1.88;;
57627;SDS011;43451;49.060;10.616;2022-12-29T08:34:29;3.65;;;1.80;;
57627;SDS011;43451;49.060;10.616;2022-12-29T08:36:56;3.90;;;1.92;;
57627;SDS011;43451;49.060;10.616;2022-12-29T08:39:21;3.17;;;1.95;;
57627;SDS011;43451;49.060;10.616;2022-12-29T08:41:46;3.05;;;1.90;;
57627;SDS011;43451;49.060;10.616;2022-12-29T08:44:12;3.17;;;1.95;;
57627;SDS011;43451;49.060;10.616;2022-12-29T08:46:37;2.50;;;1.80;;
57627;SDS011;43451;49.060;10.616;2022-12-29T08:49:03;2.40;;;1.70;;
57627;SDS011;43451;49.060;10.616;2022-12-29T08:51:28;1.85;;;1.60;;
57627;SDS011;43451;49.060;10.616;2022-12-29T08:53:54;6.10;;;1.90;;
57627;SDS011;43451;49.060;10.616;2022-12-29T08:56:22;3.75;;;1.88;;
57627;SDS011;43451;49.060;10.616;2022-12-29T08:58:49;2.65;;;1.60;;
57627;SDS011;43451;49.060;10.616;2022-12-29T09:01:15;4.20;;;1.90;;
57627;SDS011;43451;49.060;10.616;2022-12-29T09:03:40;2.45;;;1.65;;
57627;SDS011;43451;49.060;10.616;2022-12-29T09:06:06;2.85;;;1.80;;
57627;SDS011;43451;49.060;10.616;2022-12-29T09:08:31;2.45;;;1.63;;
57627;SDS011;43451;49.060;10.616;2022-12-29T09:11:05;3.45;;;1.80;;
57627;SDS011;43451;49.060;10.616;2022-12-29T09:13:32;3.35;;;1.83;;
57627;SDS011;43451;49.060;10.616;2022-12-29T09:15:58;8.57;;;1.92;;
57627;SDS011;43451;49.060;10.616;2022-12-29T09:18:24;4.60;;;1.85;;
57627;SDS011;43451;49.060;10.616;2022-12-29T09:20:55;4.68;;;2.00;;
57627;SDS011;43451;49.060;10.616;2022-12-29T09:23:24;3.25;;;1.75;;
57627;SDS011;43451;49.060;10.616;2022-12-29T09:25:50;4.90;;;1.92;;
57627;SDS011;43451;49.060;10.616;2022-12-29T09:28:16;3.42;;;1.90;;
57627;SDS011;43451;49.060;10.616;2022-12-29T09:30:41;2.40;;;1.83;;
57627;SDS011;43451;49.060;10.616;2022-12-29T09:33:07;2.88;;;1.95;;
57627;SDS011;43451;49.060;10.616;2022-12-29T09:35:32;4.43;;;1.88;;
57627;SDS011;43451;49.060;10.616;2022-12-29T09:37:58;2.65;;;1.60;;
57627;SDS011;43451;49.060;10.616;2022-12-29T09:40:29;3.42;;;1.60;;
57627;SDS011;43451;49.060;10.616;2022-12-29T09:45:32;4.90;;;2.13;;
57627;SDS011;43451;49.060;10.616;2022-12-29T09:47:59;2.17;;;1.80;;
57627;SDS011;43451;49.060;10.616;2022-12-29T09:50:34;3.90;;;1.73;;
57627;SDS011;43451;49.060;10.616;2022-12-29T09:53:08;2.88;;;1.92;;
57627;SDS011;43451;49.060;10.616;2022-12-29T09:55:49;4.53;;;1.90;;
57627;SDS011;43451;49.060;10.616;2022-12-29T09:58:26;4.10;;;1.80;;
57627;SDS011;43451;49.060;10.616;2022-12-29T10:01:05;3.92;;;1.92;;
57627;SDS011;43451;49.060;10.616;2022-12-29T10:03:38;4.75;;;2.08;;
57627;SDS011;43451;49.060;10.616;2022-12-29T10:06:15;6.22;;;2.00;;
57627;SDS011;43451;49.060;10.616;2022-12-29T10:25:15;4.15;;;2.03;;
57627;SDS011;43451;49.060;10.616;2022-12-29T10:27:44;2.97;;;1.90;;
57627;SDS011;43451;49.060;10.616;2022-12-29T10:30:13;3.67;;;2.20;;
57627;SDS011;43451;49.060;10.616;2022-12-29T10:35:28;3.95;;;2.00;;
57627;SDS011;43451;49.060;10.616;2022-12-29T10:41:01;4.45;;;1.90;;
57627;SDS011;43451;49.060;10.616;2022-12-29T10:43:43;4.38;;;1.70;;
57627;SDS011;43451;49.060;10.616;2022-12-29T10:46:17;5.43;;;1.70;;
57627;SDS011;43451;49.060;10.616;2022-12-29T10:48:54;5.47;;;1.80;;
57627;SDS011;43451;49.060;10.616;2022-12-29T10:51:24;3.85;;;1.90;;
57627;SDS011;43451;49.060;10.616;2022-12-29T10:57:11;2.97;;;1.80;;
57627;SDS011;43451;49.060;10.616;2022-12-29T10:59:53;3.00;;;1.90;;
57627;SDS011;43451;49.060;10.616;2022-12-29T11:05:06;5.23;;;1.77;;
57627;SDS011;43451;49.060;10.616;2022-12-29T11:07:43;3.53;;;1.70;;
57627;SDS011;43451;49.060;10.616;2022-12-29T11:10:28;5.65;;;1.60;;
57627;SDS011;43451;49.060;10.616;2022-12-29T11:13:04;4.30;;;1.70;;
57627;SDS011;43451;49.060;10.616;2022-12-29T11:15:42;5.28;;;1.75;;
57627;SDS011;43451;49.060;10.616;2022-12-29T11:18:22;4.35;;;1.65;;
57627;SDS011;43451;49.060;10.616;2022-12-29T11:23:24;3.50;;;1.80;;
57627;SDS011;43451;49.060;10.616;2022-12-29T11:28:42;2.90;;;1.70;;
57627;SDS011;43451;49.060;10.616;2022-12-29T11:31:10;3.13;;;2.00;;
57627;SDS011;43451;49.060;10.616;2022-12-29T11:33:36;4.15;;;1.88;;
57627;SDS011;43451;49.060;10.616;2022-12-29T11:38:42;3.60;;;1.73;;
57627;SDS011;43451;49.060;10.616;2022-12-29T11:41:19;1.85;;;1.52;;
57627;SDS011;43451;49.060;10.616;2022-12-29T11:43:47;6.38;;;1.75;;
57627;SDS011;43451;49.060;10.616;2022-12-29T11:46:20;3.58;;;1.83;;
57627;SDS011;43451;49.060;10.616;2022-12-29T11:48:51;4.20;;;1.90;;
57627;SDS011;43451;49.060;10.616;2022-12-29T11:51:23;3.72;;;1.73;;
57627;SDS011;43451;49.060;10.616;2022-12-29T11:53:59;2.85;;;1.60;;
57627;SDS011;43451;49.060;10.616;2022-12-29T11:56:38;2.92;;;1.70;;
57627;SDS011;43451;49.060;10.616;2022-12-29T11:59:34;5.22;;;1.80;;
57627;SDS011;43451;49.060;10.616;2022-12-29T12:05:11;3.15;;;1.70;;
57627;SDS011;43451;49.060;10.616;2022-12-29T12:08:07;2.10;;;1.65;;
57627;SDS011;43451;49.060;10.616;2022-12-29T12:13:23;3.40;;;1.80;;
57627;SDS011;43451;49.060;10.616;2022-12-29T12:15:57;3.55;;;1.80;;
57627;SDS011;43451;49.060;10.616;2022-12-29T12:20:57;4.00;;;1.80;;
57627;SDS011;43451;49.060;10.616;2022-12-29T12:26:21;3.60;;;1.90;;
57627;SDS011;43451;49.060;10.616;2022-12-29T12:28:58;4.15;;;1.80;;
57627;SDS011;43451;49.060;10.616;2022-12-29T12:34:20;3.37;;;1.93;;
57627;SDS011;43451;49.060;10.616;2022-12-29T12:58:52;4.43;;;1.70;;
57627;SDS011;43451;49.060;10.616;2022-12-29T13:04:19;5.00;;;1.58;;
57627;SDS011;43451;49.060;10.616;2022-12-29T13:07:11;3.72;;;2.00;;
57627;SDS011;43451;49.060;10.616;2022-12-29T13:18:06;4.53;;;1.80;;
57627;SDS011;43451;49.060;10.616;2022-12-29T13:23:23;4.55;;;1.75;;
57627;SDS011;43451;49.060;10.616;2022-12-29T13:31:20;4.75;;;1.90;;
57627;SDS011;43451;49.060;10.616;2022-12-29T13:39:01;4.20;;;2.08;;
57627;SDS011;43451;49.060;10.616;2022-12-29T13:41:35;5.53;;;1.92;;
57627;SDS011;43451;49.060;10.616;2022-12-29T13:44:06;3.75;;;1.70;;
57627;SDS011;43451;49.060;10.616;2022-12-29T13:46:36;5.32;;;2.15;;
57627;SDS011;43451;49.060;10.616;2022-12-29T13:49:12;5.15;;;1.92;;
57627;SDS011;43451;49.060;10.616;2022-12-29T13:51:42;5.10;;;2.10;;
57627;SDS011;43451;49.060;10.616;2022-12-29T13:57:06;3.35;;;1.65;;
57627;SDS011;43451;49.060;10.616;2022-12-29T13:59:42;3.20;;;1.90;;
57627;SDS011;43451;49.060;10.616;2022-12-29T14:05:27;3.75;;;1.80;;
57627;SDS011;43451;49.060;10.616;2022-12-29T14:07:59;8.18;;;2.25;;
57627;SDS011;43451;49.060;10.616;2022-12-29T14:13:09;5.22;;;2.00;;
57627;SDS011;43451;49.060;10.616;2022-12-29T14:15:39;4.95;;;2.00;;
57627;SDS011;43451;49.060;10.616;2022-12-29T14:20:49;3.75;;;2.15;;
57627;SDS011;43451;49.060;10.616;2022-12-29T14:23:37;4.18;;;2.05;;
57627;SDS011;43451;49.060;10.616;2022-12-29T14:26:12;3.95;;;2.00;;
57627;SDS011;43451;49.060;10.616;2022-12-29T14:34:14;4.00;;;2.13;;
57627;SDS011;43451;49.060;10.616;2022-12-29T14:39:04;4.15;;;1.90;;
57627;SDS011;43451;49.060;10.616;2022-12-29T14:41:57;3.97;;;2.00;;
57627;SDS011;43451;49.060;10.616;2022-12-29T14:44:25;4.10;;;2.00;;
57627;SDS011;43451;49.060;10.616;2022-12-29T14:49:22;3.13;;;1.80;;
57627;SDS011;43451;49.060;10.616;2022-12-29T14:51:51;6.95;;;2.17;;
57627;SDS011;43451;49.060;10.616;2022-12-29T14:54:40;3.00;;;1.83;;
57627;SDS011;43451;49.060;10.616;2022-12-29T14:57:11;4.82;;;1.95;;
57627;SDS011;43451;49.060;10.616;2022-12-29T14:59:43;3.85;;;1.60;;
57627;SDS011;43451;49.060;10.616;2022-12-29T15:02:14;3.03;;;1.60;;
57627;SDS011;43451;49.060;10.616;2022-12-29T15:04:43;3.83;;;1.67;;
57627;SDS011;43451;49.060;10.616;2022-12-29T15:07:11;3.40;;;1.50;;
57627;SDS011;43451;49.060;10.616;2022-12-29T15:09:39;2.22;;;1.45;;
57627;SDS011;43451;49.060;10.616;2022-12-29T15:12:22;5.28;;;1.70;;
57627;SDS011;43451;49.060;10.616;2022-12-29T15:14:53;2.95;;;2.00;;
57627;SDS011;43451;49.060;10.616;2022-12-29T15:17:31;6.07;;;2.03;;
57627;SDS011;43451;49.060;10.616;2022-12-29T15:19:59;4.23;;;2.27;;
57627;SDS011;43451;49.060;10.616;2022-12-29T15:22:25;2.70;;;1.83;;
57627;SDS011;43451;49.060;10.616;2022-12-29T15:24:53;4.32;;;1.98;;
57627;SDS011;43451;49.060;10.616;2022-12-29T15:27:23;4.43;;;1.77;;
57627;SDS011;43451;49.060;10.616;2022-12-29T15:30:01;3.38;;;1.88;;
57627;SDS011;43451;49.060;10.616;2022-12-29T15:32:29;3.55;;;2.35;;
57627;SDS011;43451;49.060;10.616;2022-12-29T15:35:16;3.33;;;2.47;;
57627;SDS011;43451;49.060;10.616;2022-12-29T15:37:46;3.83;;;1.90;;
57627;SDS011;43451;49.060;10.616;2022-12-29T15:40:21;4.97;;;2.60;;
57627;SDS011;43451;49.060;10.616;2022-12-29T15:45:38;5.00;;;1.85;;
57627;SDS011;43451;49.060;10.616;2022-12-29T15:48:04;4.57;;;2.22;;
57627;SDS011;43451;49.060;10.616;2022-12-29T15:50:33;4.68;;;2.20;;
57627;SDS011;43451;49.060;10.616;2022-12-29T15:53:00;3.63;;;2.10;;
57627;SDS011;43451;49.060;10.616;2022-12-29T15:55:30;3.37;;;2.10;;
57627;SDS011;43451;49.060;10.616;2022-12-29T15:57:58;5.32;;;2.08;;
57627;SDS011;43451;49.060;10.616;2022-12-29T16:00:28;5.50;;;2.30;;
57627;SDS011;43451;49.060;10.616;2022-12-29T16:02:55;5.00;;;2.20;;
57627;SDS011;43451;49.060;10.616;2022-12-29T16:05:24;3.45;;;2.20;;
57627;SDS011;43451;49.060;10.616;2022-12-29T16:07:57;3.80;;;2.50;;
57627;SDS011;43451;49.060;10.616;2022-12-29T16:10:35;7.95;;;2.40;;
57627;SDS011;43451;49.060;10.616;2022-12-29T16:15:46;5.15;;;2.65;;
57627;SDS011;43451;49.060;10.616;2022-12-29T16:18:25;6.20;;;2.47;;
57627;SDS011;43451;49.060;10.616;2022-12-29T16:20:54;3.80;;;2.38;;
57627;SDS011;43451;49.060;10.616;2022-12-29T16:23:25;4.03;;;2.37;;
57627;SDS011;43451;49.060;10.616;2022-12-29T16:25:54;4.07;;;2.40;;
57627;SDS011;43451;49.060;10.616;2022-12-29T16:28:44;4.07;;;2.42;;
57627;SDS011;43451;49.060;10.616;2022-12-29T16:31:17;5.25;;;2.70;;
57627;SDS011;43451;49.060;10.616;2022-12-29T16:36:54;4.88;;;2.60;;
57627;SDS011;43451;49.060;10.616;2022-12-29T16:41:51;7.35;;;2.92;;
57627;SDS011;43451;49.060;10.616;2022-12-29T16:44:36;6.13;;;2.90;;
57627;SDS011;43451;49.060;10.616;2022-12-29T16:47:15;3.72;;;2.40;;
57627;SDS011;43451;49.060;10.616;2022-12-29T16:49:46;4.68;;;2.83;;
57627;SDS011;43451;49.060;10.616;2022-12-29T16:52:23;6.68;;;3.00;;
57627;SDS011;43451;49.060;10.616;2022-12-29T16:54:55;3.53;;;2.73;;
57627;SDS011;43451;49.060;10.616;2022-12-29T16:57:23;4.78;;;3.20;;
57627;SDS011;43451;49.060;10.616;2022-12-29T16:59:53;4.97;;;3.25;;
57627;SDS011;43451;49.060;10.616;2022-12-29T17:02:23;5.32;;;3.30;;
57627;SDS011;43451;49.060;10.616;2022-12-29T17:04:50;5.20;;;3.00;;
57627;SDS011;43451;49.060;10.616;2022-12-29T17:07:18;8.10;;;3.08;;
57627;SDS011;43451;49.060;10.616;2022-12-29T17:09:48;6.85;;;3.35;;
57627;SDS011;43451;49.060;10.616;2022-12-29T17:12:28;6.25;;;3.00;;
57627;SDS011;43451;49.060;10.616;2022-12-29T17:17:32;4.32;;;3.38;;
57627;SDS011;43451;49.060;10.616;2022-12-29T17:20:01;4.97;;;2.70;;
57627;SDS011;43451;49.060;10.616;2022-12-29T17:22:29;5.63;;;2.70;;
57627;SDS011;43451;49.060;10.616;2022-12-29T17:24:56;3.97;;;2.42;;
57627;SDS011;43451;49.060;10.616;2022-12-29T17:27:28;4.68;;;2.63;;
57627;SDS011;43451;49.060;10.616;2022-12-29T17:30:15;6.13;;;3.00;;
57627;SDS011;43451;49.060;10.616;2022-12-29T17:32:51;5.05;;;2.88;;
57627;SDS011;43451;49.060;10.616;2022-12-29T17:35:23;5.90;;;2.30;;
57627;SDS011;43451;49.060;10.616;2022-12-29T17:37:49;5.07;;;2.20;;
57627;SDS011;43451;49.060;10.616;2022-12-29T17:40:16;5.30;;;2.70;;
57627;SDS011;43451;49.060;10.616;2022-12-29T17:42:51;4.50;;;2.80;;
57627;SDS011;43451;49.060;10.616;2022-12-29T17:45:28;6.90;;;3.20;;
57627;SDS011;43451;49.060;10.616;2022-12-29T17:47:57;4.13;;;2.58;;
57627;SDS011;43451;49.060;10.616;2022-12-29T17:50:26;4.15;;;2.50;;